createdAt,value
2019-04-01T00:01:37.527Z,5.86
2019-04-01T00:11:49.256Z,5.17
2019-04-01T00:16:57.535Z,9.13
2019-04-01T00:22:17.626Z,7.91
2019-04-01T00:27:06.033Z,7.92
2019-04-01T00:32:13.454Z,4.30
2019-04-01T00:37:33.785Z,8.05
2019-04-01T00:42:20.882Z,5.91
2019-04-01T00:47:29.258Z,5.89
2019-04-01T00:52:50.594Z,7.72
2019-04-01T00:57:38.670Z,4.53
2019-04-01T01:02:59.758Z,6.84
2019-04-01T01:07:47.984Z,6.31
2019-04-01T01:13:09.065Z,5.17
2019-04-01T01:18:09.353Z,7.07
2019-04-01T01:22:57.526Z,5.66
2019-04-01T01:28:17.751Z,7.37
2019-04-01T01:33:17.744Z,7.73
2019-04-01T01:38:19.117Z,8.04
2019-04-01T01:43:07.037Z,9.20
2019-04-01T01:48:28.484Z,7.53
2019-04-01T01:53:15.753Z,11.91
2019-04-01T01:58:23.869Z,6.32
2019-04-01T02:03:43.845Z,5.50
2019-04-01T02:08:31.962Z,10.40
2019-04-01T02:13:53.110Z,3.68
2019-04-01T02:18:40.455Z,5.96
2019-04-01T02:23:47.690Z,6.49
2019-04-01T02:28:54.994Z,6.10
2019-04-01T02:34:03.205Z,8.14
2019-04-01T02:39:24.319Z,8.64
2019-04-01T02:44:25.285Z,5.61
2019-04-01T02:49:13.450Z,5.69
2019-04-01T02:54:21.640Z,8.48
2019-04-01T02:59:28.844Z,8.26
2019-04-01T03:04:49.961Z,6.26
2019-04-01T03:09:51.040Z,6.91
2019-04-01T03:14:38.151Z,4.85
2019-04-01T03:19:46.551Z,11.65
2019-04-01T03:25:06.750Z,6.57
2019-04-01T03:29:54.148Z,8.75
2019-04-01T03:35:01.924Z,10.03
2019-04-01T03:45:25.368Z,8.20
2019-04-01T03:50:12.674Z,6.80
2019-04-01T03:55:33.791Z,10.40
2019-04-01T04:00:34.115Z,7.23
2019-04-01T04:05:37.293Z,8.79
2019-04-01T04:10:24.605Z,4.87
2019-04-01T04:15:32.610Z,6.62
2019-04-01T04:20:53.982Z,7.36
2019-04-01T04:25:41.104Z,6.85
2019-04-01T04:30:49.269Z,6.95
2019-04-01T04:36:10.371Z,7.07
2019-04-01T04:41:10.632Z,6.35
2019-04-01T04:46:10.748Z,6.40
2019-04-01T04:51:13.857Z,6.67
2019-04-01T04:56:01.964Z,7.65
2019-04-01T05:01:10.316Z,6.44
2019-04-01T05:06:30.535Z,6.95
2019-04-01T05:16:35.422Z,6.64
2019-04-01T05:21:35.527Z,4.43
2019-04-01T05:26:36.618Z,6.74
2019-04-01T05:31:24.829Z,5.01
2019-04-01T05:36:45.832Z,7.28
2019-04-01T05:41:34.123Z,7.97
2019-04-01T05:46:42.210Z,8.37
2019-04-01T05:52:03.449Z,6.15
2019-04-01T05:56:50.664Z,6.00
2019-04-01T06:01:58.231Z,11.07
2019-04-01T06:07:18.355Z,10.08
2019-04-01T06:12:20.246Z,5.07
2019-04-01T06:17:21.364Z,5.55
2019-04-01T06:22:08.620Z,4.23
2019-04-01T06:27:16.821Z,7.24
2019-04-01T06:32:37.201Z,9.98
2019-04-01T06:37:24.298Z,4.85
2019-04-01T06:42:32.576Z,6.05
2019-04-01T06:47:40.684Z,6.23
2019-04-01T06:52:49.023Z,6.98
2019-04-01T06:58:11.781Z,6.99
2019-04-01T07:02:56.820Z,7.02
2019-04-01T07:08:16.960Z,7.65
2019-04-01T07:13:17.462Z,8.70
2019-04-01T07:18:17.595Z,8.83
2019-04-01T07:23:17.806Z,6.24
2019-04-01T07:28:17.857Z,9.10
2019-04-01T07:38:10.097Z,9.27
2019-04-01T07:43:17.349Z,8.72
2019-04-01T07:48:38.309Z,10.63
2019-04-01T07:53:26.650Z,7.30
2019-04-01T07:58:34.802Z,7.56
2019-04-01T08:09:02.081Z,7.74
2019-04-01T08:14:02.255Z,7.05
2019-04-01T08:19:02.417Z,11.09
2019-04-01T08:23:50.601Z,10.78
2019-04-01T08:28:57.683Z,9.42
2019-04-01T08:34:18.926Z,8.54
2019-04-01T08:44:20.007Z,6.15
2019-04-01T08:49:20.169Z,6.59
2019-04-01T08:54:07.308Z,8.66
2019-04-01T08:59:15.432Z,11.15
2019-04-01T09:04:36.781Z,11.67
2019-04-01T09:09:36.754Z,6.66
2019-04-01T09:14:25.138Z,8.23
2019-04-01T09:24:49.179Z,12.41
2019-04-01T09:29:36.249Z,10.07
2019-04-01T09:34:57.522Z,13.41
2019-04-01T09:39:44.790Z,14.83
2019-04-01T09:45:05.059Z,7.35
2019-04-01T09:50:05.221Z,9.96
2019-04-01T09:54:52.411Z,8.36
2019-04-01T10:00:13.482Z,10.87
2019-04-01T10:05:01.908Z,10.96
2019-04-01T10:10:21.898Z,8.66
2019-04-01T10:15:23.112Z,10.95
2019-04-01T10:20:24.422Z,9.65
2019-04-01T10:25:12.053Z,11.07
2019-04-01T10:30:32.269Z,12.32
2019-04-01T10:35:19.799Z,11.23
2019-04-01T10:40:27.367Z,12.75
2019-04-01T10:50:51.493Z,7.66
2019-04-01T11:00:43.193Z,14.86
2019-04-01T11:10:55.425Z,10.89
2019-04-01T11:16:02.774Z,12.80
2019-04-01T11:21:22.929Z,12.46
2019-04-01T11:26:23.166Z,11.22
2019-04-01T11:31:11.130Z,15.17
2019-04-01T11:36:19.992Z,15.32
2019-04-01T11:41:40.020Z,10.22
2019-04-01T11:46:28.451Z,10.82
2019-04-01T11:51:48.512Z,12.85
2019-04-01T11:56:49.569Z,14.35
2019-04-01T12:01:37.657Z,13.76
2019-04-01T12:11:46.755Z,8.95
2019-04-01T12:27:12.181Z,9.23
2019-04-01T12:32:12.228Z,14.96
2019-04-01T12:37:13.548Z,9.77
2019-04-01T12:42:13.662Z,9.35
2019-04-01T12:47:01.957Z,10.91
2019-04-01T12:52:22.075Z,12.80
2019-04-01T12:57:22.943Z,8.30
2019-04-01T13:02:11.171Z,12.64
2019-04-01T13:07:18.535Z,12.14
2019-04-01T13:12:27.548Z,11.16
2019-04-01T13:17:46.993Z,10.82
2019-04-01T13:22:35.222Z,12.06
2019-04-01T13:27:42.776Z,10.42
2019-04-01T13:33:02.848Z,12.28
2019-04-01T13:37:51.286Z,10.62
2019-04-01T13:42:59.659Z,9.46
2019-04-01T13:48:06.995Z,10.52
2019-04-01T13:53:28.582Z,12.68
2019-04-01T13:58:17.445Z,12.47
2019-04-01T14:03:34.771Z,12.01
2019-04-01T14:13:25.713Z,10.86
2019-04-01T14:18:33.100Z,9.61
2019-04-01T14:28:59.246Z,12.60
2019-04-01T14:33:59.549Z,14.99
2019-04-01T14:38:47.776Z,13.15
2019-04-01T14:43:55.794Z,12.29
2019-04-01T14:49:04.005Z,13.34
2019-04-01T14:54:12.237Z,12.27
2019-04-01T14:59:19.674Z,10.87
2019-04-01T15:04:27.724Z,16.40
2019-04-01T15:09:40.855Z,11.06
2019-04-01T15:14:38.000Z,16.69
2019-04-01T15:19:48.512Z,12.57
2019-04-01T15:24:53.458Z,14.51
2019-04-01T15:30:14.579Z,14.74
2019-04-01T15:35:01.811Z,13.96
2019-04-01T15:45:31.466Z,14.98
2019-04-01T15:50:28.176Z,13.58
2019-04-01T15:55:25.518Z,16.00
2019-04-01T16:05:39.823Z,13.93
2019-04-01T16:10:50.157Z,17.97
2019-04-01T16:16:08.380Z,17.10
2019-04-01T16:21:09.493Z,19.02
2019-04-01T16:25:57.564Z,15.73
2019-04-01T16:31:05.763Z,15.79
2019-04-01T16:36:13.959Z,16.33
2019-04-01T16:41:34.283Z,17.02
2019-04-01T16:46:34.406Z,17.27
2019-04-01T16:51:35.108Z,15.44
2019-04-01T16:56:22.365Z,18.38
2019-04-01T17:01:30.411Z,18.68
2019-04-01T17:06:50.506Z,19.87
2019-04-01T17:11:54.075Z,17.75
2019-04-01T17:21:54.614Z,19.38
2019-04-01T17:26:55.856Z,21.22
2019-04-01T17:37:01.011Z,14.48
2019-04-01T17:41:58.483Z,16.53
2019-04-01T17:56:54.090Z,17.35
2019-04-01T18:02:01.462Z,16.60
2019-04-01T18:07:24.291Z,15.98
2019-04-01T18:17:13.355Z,18.72
2019-04-01T18:22:20.541Z,13.33
2019-04-01T18:27:28.889Z,14.66
2019-04-01T18:32:36.370Z,17.41
2019-04-01T18:37:43.528Z,17.07
2019-04-01T18:42:51.970Z,17.21
2019-04-01T18:47:59.144Z,17.11
2019-04-01T18:53:07.763Z,15.70
2019-04-01T18:58:27.704Z,17.21
2019-04-01T19:03:15.079Z,17.53
2019-04-01T19:08:22.302Z,16.83
2019-04-01T19:13:29.731Z,19.54
2019-04-01T19:18:49.823Z,15.46
2019-04-01T19:23:50.115Z,18.79
2019-04-01T19:28:37.406Z,15.72
2019-04-01T19:33:45.728Z,16.22
2019-04-01T19:39:05.858Z,15.86
2019-04-01T19:43:53.264Z,16.23
2019-04-01T19:49:04.745Z,23.37
2019-04-01T19:54:08.250Z,17.52
2019-04-01T19:59:15.453Z,21.57
2019-04-01T20:04:35.785Z,18.71
2019-04-01T20:09:23.430Z,21.38
2019-04-01T20:14:43.566Z,19.39
2019-04-01T20:19:31.793Z,23.68
2019-04-01T20:24:39.474Z,23.23
2019-04-01T20:29:59.443Z,19.11
2019-04-01T20:34:56.974Z,20.53
2019-04-01T20:39:55.358Z,24.12
2019-04-01T20:45:02.686Z,21.99
2019-04-01T20:50:09.925Z,17.94
2019-04-01T20:55:17.195Z,20.79
2019-04-01T21:00:38.669Z,17.96
2019-04-01T21:05:38.957Z,18.42
2019-04-01T21:10:40.027Z,20.16
2019-04-01T21:15:27.350Z,20.70
2019-04-01T21:20:47.530Z,19.32
2019-04-01T21:25:34.935Z,19.97
2019-04-01T21:30:42.151Z,17.78
2019-04-01T21:35:49.458Z,20.72
2019-04-01T21:40:56.883Z,16.72
2019-04-01T21:46:04.154Z,21.84
2019-04-01T21:51:11.368Z,21.32
2019-04-01T22:01:23.383Z,18.39
2019-04-01T22:06:31.459Z,20.58
2019-04-01T22:11:38.621Z,19.78
2019-04-01T22:16:48.030Z,19.72
2019-04-01T22:21:54.097Z,23.07
2019-04-01T22:27:02.189Z,19.95
2019-04-01T22:32:10.405Z,24.77
2019-04-01T22:37:30.523Z,26.84
2019-04-01T22:42:18.713Z,22.33
2019-04-01T22:47:38.818Z,25.95
2019-04-01T22:52:42.009Z,19.60
2019-04-01T22:57:27.057Z,23.40
2019-04-01T23:02:48.083Z,27.68
2019-04-01T23:07:36.392Z,27.70
2019-04-01T23:12:43.750Z,24.04
2019-04-01T23:17:52.091Z,28.70
2019-04-01T23:23:13.027Z,25.75
2019-04-01T23:28:01.311Z,22.79
2019-04-01T23:33:22.464Z,28.41
2019-04-01T23:38:09.794Z,23.68
2019-04-01T23:48:33.561Z,22.63
2019-04-01T23:53:21.768Z,25.68
2019-04-01T23:58:29.131Z,22.79
